createdAt,value
2019-04-05T00:03:13.797Z,9.00
2019-04-05T00:08:19.156Z,8.90
2019-04-05T00:13:24.505Z,8.80
2019-04-05T00:18:29.690Z,8.80
2019-04-05T00:23:53.907Z,8.70
2019-04-05T00:28:59.084Z,8.60
2019-04-05T00:34:23.530Z,8.50
2019-04-05T00:39:29.905Z,8.40
2019-04-05T00:44:35.268Z,8.30
2019-04-05T00:49:40.865Z,8.20
2019-04-05T00:54:46.207Z,8.10
2019-04-05T00:59:51.552Z,8.00
2019-04-05T01:04:57.337Z,7.90
2019-04-05T01:10:03.208Z,7.80
2019-04-05T01:15:10.729Z,7.70
2019-04-05T01:20:16.180Z,7.70
2019-04-05T01:25:22.546Z,7.50
2019-04-05T01:30:47.171Z,7.40
2019-04-05T01:35:52.328Z,7.30
2019-04-05T01:40:59.204Z,7.20
2019-04-05T01:46:24.440Z,7.10
2019-04-05T01:51:29.911Z,6.90
2019-04-05T01:56:35.252Z,6.70
2019-04-05T02:01:40.608Z,6.40
2019-04-05T02:07:05.140Z,6.20
2019-04-05T02:12:10.413Z,6.10
2019-04-05T02:17:15.747Z,5.90
2019-04-05T02:22:40.188Z,5.80
2019-04-05T02:27:45.355Z,5.60
2019-04-05T02:33:09.807Z,5.50
2019-04-05T02:38:15.387Z,5.50
2019-04-05T02:43:22.586Z,5.40
2019-04-05T02:48:47.902Z,5.20
2019-04-05T02:54:12.450Z,5.20
2019-04-05T02:59:18.808Z,5.10
2019-04-05T03:04:43.218Z,5.00
2019-04-05T03:10:00.706Z,5.00
2019-04-05T03:15:07.945Z,5.00
2019-04-05T03:20:32.792Z,5.10
2019-04-05T03:25:38.336Z,5.10
2019-04-05T03:30:43.901Z,5.10
2019-04-05T03:36:09.044Z,5.10
2019-04-05T03:41:14.677Z,5.10
2019-04-05T03:46:54.774Z,5.00
2019-04-05T03:51:46.417Z,5.00
2019-04-05T03:56:51.860Z,4.90
2019-04-05T04:01:57.102Z,4.90
2019-04-05T04:07:02.475Z,4.90
2019-04-05T04:12:26.699Z,4.80
2019-04-05T04:17:44.026Z,4.70
2019-04-05T04:22:50.110Z,4.80
2019-04-05T04:27:55.176Z,4.80
2019-04-05T04:33:20.222Z,4.80
2019-04-05T04:38:25.880Z,4.70
2019-04-05T04:43:31.182Z,4.70
2019-04-05T04:48:55.440Z,4.70
2019-04-05T04:54:00.750Z,4.80
2019-04-05T04:59:06.325Z,5.00
2019-04-05T05:04:12.015Z,5.00
2019-04-05T05:09:17.395Z,5.00
2019-04-05T05:14:23.873Z,5.10
2019-04-05T05:19:29.617Z,5.30
2019-04-05T05:24:54.134Z,5.40
2019-04-05T05:30:00.114Z,5.50
2019-04-05T05:35:07.301Z,5.70
2019-04-05T05:40:13.554Z,5.80
2019-04-05T05:45:19.221Z,6.10
2019-04-05T05:50:44.374Z,6.30
2019-04-05T05:56:08.851Z,6.60
2019-04-05T06:01:14.037Z,6.90
2019-04-05T06:06:19.224Z,7.10
2019-04-05T06:11:24.552Z,7.30
2019-04-05T06:16:29.814Z,7.50
2019-04-05T06:21:35.152Z,7.70
2019-04-05T06:26:40.087Z,7.90
2019-04-05T06:32:04.727Z,8.20
2019-04-05T06:37:10.094Z,8.50
2019-04-05T06:42:34.686Z,8.70
2019-04-05T06:47:39.837Z,9.00
2019-04-05T06:52:44.888Z,9.30
2019-04-05T06:57:50.227Z,9.50
2019-04-05T07:03:14.847Z,9.70
2019-04-05T07:08:31.867Z,10.10
2019-04-05T07:13:37.579Z,10.40
2019-04-05T07:18:42.942Z,10.70
2019-04-05T07:23:48.350Z,10.80
2019-04-05T07:28:53.577Z,10.90
2019-04-05T07:34:18.146Z,11.30
2019-04-05T07:39:23.097Z,11.80
2019-04-05T07:44:28.038Z,12.20
2019-04-05T07:49:33.306Z,12.50
2019-04-05T07:54:38.277Z,12.80
2019-04-05T08:00:02.828Z,13.10
2019-04-05T08:05:08.857Z,13.10
2019-04-05T08:10:14.227Z,13.10
2019-04-05T08:15:19.586Z,13.10
2019-04-05T08:20:25.384Z,13.10
2019-04-05T08:25:30.737Z,13.20
2019-04-05T08:30:35.868Z,13.30
2019-04-05T08:36:00.326Z,13.40
2019-04-05T08:41:05.597Z,13.50
2019-04-05T08:46:10.576Z,13.60
2019-04-05T08:51:15.926Z,13.60
2019-04-05T08:56:21.186Z,13.80
2019-04-05T09:01:26.617Z,14.00
2019-04-05T09:06:32.072Z,14.30
2019-04-05T09:11:37.508Z,14.60
2019-04-05T09:16:42.786Z,15.00
2019-04-05T09:22:07.078Z,15.60
2019-04-05T09:27:12.387Z,15.90
2019-04-05T09:32:17.626Z,16.30
2019-04-05T09:37:23.306Z,16.80
2019-04-05T09:42:28.657Z,16.70
2019-04-05T09:47:33.707Z,16.60
2019-04-05T09:52:40.102Z,16.70
2019-04-05T09:57:45.747Z,17.00
2019-04-05T10:02:50.998Z,17.30
2019-04-05T10:07:56.059Z,17.80
2019-04-05T10:13:01.398Z,18.50
2019-04-05T10:18:06.518Z,19.00
2019-04-05T10:23:11.767Z,19.30
2019-04-05T10:28:17.077Z,19.90
2019-04-05T10:33:41.306Z,20.10
2019-04-05T10:38:46.267Z,19.50
2019-04-05T10:43:51.546Z,19.40
2019-04-05T10:48:56.929Z,19.50
2019-04-05T10:54:02.219Z,19.60
2019-04-05T10:59:07.186Z,19.60
2019-04-05T11:04:12.546Z,19.50
2019-04-05T11:09:17.516Z,19.60
2019-04-05T11:14:22.706Z,19.80
2019-04-05T11:19:30.285Z,19.70
2019-04-05T11:24:36.239Z,19.70
2019-04-05T11:29:41.584Z,19.60
2019-04-05T11:34:46.789Z,19.70
2019-04-05T11:39:52.146Z,19.80
2019-04-05T11:44:58.816Z,19.90
2019-04-05T11:50:06.076Z,19.90
2019-04-05T11:55:11.166Z,19.90
2019-04-05T12:00:21.249Z,19.90
2019-04-05T12:05:27.153Z,19.90
2019-04-05T12:10:32.517Z,20.00
2019-04-05T12:15:37.506Z,20.10
2019-04-05T12:20:49.720Z,20.30
2019-04-05T12:25:49.768Z,20.50
2019-04-05T12:30:54.736Z,20.70
2019-04-05T12:36:01.574Z,20.70
2019-04-05T12:41:10.680Z,20.80
2019-04-05T12:46:15.903Z,20.90
2019-04-05T12:51:20.527Z,21.10
2019-04-05T12:56:26.534Z,21.30
2019-04-05T13:01:32.167Z,21.30
2019-04-05T13:06:37.137Z,21.20
2019-04-05T13:11:42.307Z,21.20
2019-04-05T13:17:06.828Z,21.30
2019-04-05T13:22:12.136Z,21.60
2019-04-05T13:33:18.466Z,21.80
2019-04-05T13:38:24.997Z,21.80
2019-04-05T13:43:39.421Z,22.00
2019-04-05T13:48:45.424Z,22.00
2019-04-05T13:53:54.326Z,22.30
2019-04-05T13:58:59.698Z,22.40
2019-04-05T14:04:05.785Z,22.80
2019-04-05T14:09:11.386Z,23.00
2019-04-05T14:14:17.856Z,23.00
2019-04-05T14:19:53.534Z,22.80
2019-04-05T14:24:59.803Z,22.40
2019-04-05T14:30:06.935Z,22.40
2019-04-05T14:41:15.424Z,22.30
2019-04-05T14:46:22.722Z,22.30
2019-04-05T14:58:26.827Z,22.10
2019-04-05T15:03:32.785Z,21.70
2019-04-05T15:08:37.929Z,21.40
2019-04-05T15:13:43.108Z,21.30
2019-04-05T15:18:48.490Z,21.40
2019-04-05T15:23:53.729Z,21.40
2019-04-05T15:28:58.999Z,21.30
2019-04-05T15:34:04.359Z,21.20
2019-04-05T15:39:09.857Z,21.20
2019-04-05T15:44:15.110Z,21.10
2019-04-05T15:49:21.599Z,20.90
2019-04-05T15:54:46.168Z,20.70
2019-04-05T15:59:51.628Z,20.60
2019-04-05T16:05:19.875Z,20.50
2019-04-05T16:10:29.664Z,20.50
2019-04-05T16:15:35.395Z,20.20
2019-04-05T16:20:40.903Z,20.00
2019-04-05T16:25:46.247Z,19.80
2019-04-05T16:30:51.547Z,19.50
2019-04-05T16:35:56.556Z,19.30
2019-04-05T16:41:01.519Z,19.20
2019-04-05T16:46:06.953Z,19.10
2019-04-05T16:51:12.465Z,18.90
2019-04-05T16:56:17.944Z,18.60
2019-04-05T17:01:27.229Z,18.50
2019-04-05T17:06:29.896Z,18.20
2019-04-05T17:11:35.344Z,18.00
2019-04-05T17:16:40.694Z,17.80
2019-04-05T17:21:45.901Z,17.60
2019-04-05T17:26:51.455Z,17.40
2019-04-05T17:31:56.866Z,17.10
2019-04-05T17:37:02.149Z,16.80
2019-04-05T17:42:07.810Z,16.40
2019-04-05T17:47:13.274Z,16.20
2019-04-05T17:52:18.712Z,16.00
2019-04-05T17:57:24.266Z,15.90
2019-04-05T18:02:29.547Z,15.60
2019-04-05T18:07:34.706Z,15.50
2019-04-05T18:12:40.198Z,15.30
2019-04-05T18:17:45.779Z,15.10
2019-04-05T18:22:50.757Z,14.90
2019-04-05T18:27:56.050Z,14.70
2019-04-05T18:33:01.457Z,14.70
2019-04-05T18:38:06.906Z,14.50
2019-04-05T18:43:12.315Z,14.30
2019-04-05T18:48:17.681Z,14.20
2019-04-05T18:53:23.001Z,14.10
2019-04-05T18:58:28.761Z,14.00
2019-04-05T19:03:53.482Z,13.80
2019-04-05T19:09:12.088Z,13.70
2019-04-05T19:14:17.480Z,13.60
2019-04-05T19:19:23.001Z,13.40
2019-04-05T19:24:28.475Z,13.30
2019-04-05T19:29:33.681Z,13.30
2019-04-05T19:50:00.521Z,13.30
2019-04-05T19:55:07.427Z,13.30
2019-04-05T20:00:14.760Z,13.30
2019-04-05T20:05:19.880Z,13.30
2019-04-05T20:10:25.039Z,13.30
2019-04-05T20:15:30.186Z,13.40
2019-04-05T20:20:35.321Z,13.40
2019-04-05T20:25:40.755Z,13.40
2019-04-05T20:30:46.279Z,13.30
2019-04-05T20:35:51.443Z,13.20
2019-04-05T20:40:56.955Z,13.20
2019-04-05T20:46:02.485Z,13.00
2019-04-05T20:51:07.997Z,12.90
2019-04-05T20:56:13.162Z,12.90
2019-04-05T21:01:18.716Z,12.80
2019-04-05T21:06:24.060Z,12.60
2019-04-05T21:11:29.391Z,12.50
2019-04-05T21:16:34.671Z,12.30
2019-04-05T21:21:39.939Z,12.10
2019-04-05T21:26:44.912Z,12.00
2019-04-05T21:31:50.092Z,11.80
2019-04-05T21:36:55.272Z,11.70
2019-04-05T21:42:00.483Z,11.60
2019-04-05T21:47:05.811Z,11.50
2019-04-05T21:52:11.056Z,11.40
2019-04-05T21:57:16.438Z,11.20
2019-04-05T22:02:22.187Z,11.20
2019-04-05T22:07:27.430Z,11.10
2019-04-05T22:12:32.739Z,11.00
2019-04-05T22:17:37.942Z,11.00
2019-04-05T22:22:43.195Z,11.00
2019-04-05T22:28:07.659Z,10.90
2019-04-05T22:33:12.863Z,10.90
2019-04-05T22:38:18.222Z,10.80
2019-04-05T22:43:23.488Z,10.80
2019-04-05T22:48:28.478Z,10.70
2019-04-05T22:53:33.956Z,10.70
2019-04-05T22:58:39.157Z,10.60
2019-04-05T23:03:44.355Z,10.60
2019-04-05T23:09:08.815Z,10.60
2019-04-05T23:14:14.074Z,10.40
2019-04-05T23:19:19.425Z,10.20
2019-04-05T23:24:24.840Z,10.10
2019-04-05T23:29:30.150Z,9.80
2019-04-05T23:34:54.587Z,9.50
2019-04-05T23:39:59.734Z,9.30
2019-04-05T23:45:06.888Z,9.00
2019-04-05T23:50:12.151Z,8.70
2019-04-05T23:55:17.416Z,8.50
